Weather at Cincinnati Northern Kentucky International Airport

Public forecast

Using degrees Fahrenheit for public forecast. Weather courtesy of forecast.io.

Current aviation weather report (METAR) for Cincinnati Northern Kentucky International Airport

Retrieved 2021/04/20 22:52 UTC (39 minutes ago):

KCVG 202252Z 36012KT 10SM FEW060 BKN100 BKN250 13/04 A2984 RMK AO2 RAB33E37 SLP104 P0000 T01280044

Aviation forecast (TAF) for Cincinnati Northern Kentucky International Airport

Retrieved 2021/04/20 18:42 UTC (5 hours ago):

TAF KCVG 201739Z 2018/2124 22007KT P6SM SCT035 OVC250 FM202200 28007KT P6SM VCSH BKN035 OVC090 FM210200 35011KT P6SM -RA BKN025 FM210400 35012G20KT 4SM -RASN BR OVC015 FM210600 34010KT 2SM -RASN BR OVC008 FM211000 32011KT P6SM BKN015 FM211600 31010KT P6SM FEW018 BKN250 FM212300 29008KT P6SM SCT090 BKN250